This is the latest recevied weather packets stored in our database for station/object EA5GTE-12. If no packets are shown the sender has not sent any weather packets the latest 10 day(s).
| Time | Temp. | Humidity | Pressure | Rain* | Wind** | Luminosity | Snow |
|---|---|---|---|---|---|---|---|
| 1787515687 | 23.89° C | 100% | 938.4 hPa | - | - | - | - |
| 1787514787 | 24.44° C | 100% | 938.2 hPa | - | - | - | - |
| 1787513887 | 24.44° C | 100% | 938.1 hPa | - | - | - | - |
| 1787512987 | 25° C | 100% | 937.8 hPa | - | - | - | - |
| 1787512087 | 25.56° C | 100% | 937.2 hPa | - | - | - | - |
| 1787511293 | 25.56° C | 95% | 937.2 hPa | - | - | - | - |
| 1787511187 | 25.56° C | 95% | 937.2 hPa | - | - | - | - |
| 1787510287 | 26.11° C | 87% | 937.1 hPa | - | - | - | - |
| 1787509387 | 27.22° C | 78% | 937.1 hPa | - | - | - | - |
| 1787508486 | 28.33° C | 67% | 937.1 hPa | - | - | - | - |
| 1787507586 | 30° C | 58% | 937 hPa | - | - | - | - |
| 1787506686 | 30.56° C | 52% | 936.8 hPa | - | - | - | - |
| 1787505786 | 31.67° C | 47% | 936.8 hPa | - | - | - | - |
| 1787504886 | 31.67° C | 43% | 936.8 hPa | - | - | - | - |
| 1787503986 | 32.78° C | 39% | 936.7 hPa | - | - | - | - |
| 1787503086 | 33.33° C | 38% | 936.8 hPa | - | - | - | - |
| 1787501287 | 34.44° C | 33% | 936.9 hPa | - | - | - | - |
| 1787500387 | 33.33° C | 36% | 936.8 hPa | - | - | - | - |
| 1787499487 | 33.33° C | 36% | 936.9 hPa | - | - | - | - |
| 1787498587 | 34.44° C | 33% | 937.1 hPa | - | - | - | - |
| 1787497687 | 34.44° C | 31% | 937.2 hPa | - | - | - | - |
| 1787496787 | 34.44° C | 30% | 937.2 hPa | - | - | - | - |
| 1787495887 | 33.89° C | 30% | 937.1 hPa | - | - | - | - |
| 1787495078 | 34.44° C | 30% | 937.3 hPa | - | - | - | - |
| 1787494987 | 34.44° C | 30% | 937.3 hPa | - | - | - | - |
* Rain since midnight (hover to see other rain measurements)
** Current wind speed in m/s (hover to see current wind gust speed)